sensor_id;sensor_type;location;lat;lon;timestamp;P1;durP1;ratioP1;P2;durP2;ratioP2
32734;SDS011;19112;51.076;3.706;2022-08-21T00:02:17;15.95;;;3.70;;
32734;SDS011;19112;51.076;3.706;2022-08-21T00:04:45;12.82;;;3.70;;
32734;SDS011;19112;51.076;3.706;2022-08-21T00:07:11;12.52;;;3.58;;
32734;SDS011;19112;51.076;3.706;2022-08-21T00:09:37;15.77;;;4.00;;
32734;SDS011;19112;51.076;3.706;2022-08-21T00:12:04;12.18;;;3.83;;
32734;SDS011;19112;51.076;3.706;2022-08-21T00:14:31;14.50;;;3.78;;
32734;SDS011;19112;51.076;3.706;2022-08-21T00:16:58;17.23;;;4.88;;
32734;SDS011;19112;51.076;3.706;2022-08-21T00:19:24;11.68;;;3.42;;
32734;SDS011;19112;51.076;3.706;2022-08-21T00:21:51;15.85;;;4.05;;
32734;SDS011;19112;51.076;3.706;2022-08-21T00:24:18;15.85;;;4.00;;
32734;SDS011;19112;51.076;3.706;2022-08-21T00:26:45;10.65;;;3.88;;
32734;SDS011;19112;51.076;3.706;2022-08-21T00:29:12;14.60;;;4.25;;
32734;SDS011;19112;51.076;3.706;2022-08-21T00:31:39;19.55;;;4.18;;
32734;SDS011;19112;51.076;3.706;2022-08-21T00:34:06;13.45;;;3.80;;
32734;SDS011;19112;51.076;3.706;2022-08-21T00:36:32;15.15;;;4.18;;
32734;SDS011;19112;51.076;3.706;2022-08-21T00:38:59;17.77;;;4.97;;
32734;SDS011;19112;51.076;3.706;2022-08-21T00:41:26;15.10;;;4.07;;
32734;SDS011;19112;51.076;3.706;2022-08-21T00:43:53;10.57;;;3.30;;
32734;SDS011;19112;51.076;3.706;2022-08-21T00:46:19;12.50;;;3.63;;
32734;SDS011;19112;51.076;3.706;2022-08-21T00:48:45;16.52;;;3.80;;
32734;SDS011;19112;51.076;3.706;2022-08-21T00:51:19;14.07;;;3.92;;
32734;SDS011;19112;51.076;3.706;2022-08-21T00:53:56;13.35;;;3.58;;
32734;SDS011;19112;51.076;3.706;2022-08-21T00:56:26;17.13;;;3.95;;
32734;SDS011;19112;51.076;3.706;2022-08-21T00:58:53;19.77;;;3.55;;
32734;SDS011;19112;51.076;3.706;2022-08-21T01:01:23;13.13;;;4.00;;
32734;SDS011;19112;51.076;3.706;2022-08-21T01:03:49;16.95;;;4.00;;
32734;SDS011;19112;51.076;3.706;2022-08-21T01:06:15;18.33;;;3.55;;
32734;SDS011;19112;51.076;3.706;2022-08-21T01:08:41;16.05;;;4.07;;
32734;SDS011;19112;51.076;3.706;2022-08-21T01:11:07;15.13;;;3.45;;
32734;SDS011;19112;51.076;3.706;2022-08-21T01:13:34;15.70;;;3.50;;
32734;SDS011;19112;51.076;3.706;2022-08-21T01:16:04;15.13;;;4.03;;
32734;SDS011;19112;51.076;3.706;2022-08-21T01:18:34;13.45;;;3.13;;
32734;SDS011;19112;51.076;3.706;2022-08-21T01:21:04;14.45;;;4.32;;
32734;SDS011;19112;51.076;3.706;2022-08-21T01:23:34;18.75;;;3.92;;
32734;SDS011;19112;51.076;3.706;2022-08-21T01:26:03;21.33;;;4.75;;
32734;SDS011;19112;51.076;3.706;2022-08-21T01:28:30;11.73;;;3.28;;
32734;SDS011;19112;51.076;3.706;2022-08-21T01:31:03;11.30;;;3.45;;
32734;SDS011;19112;51.076;3.706;2022-08-21T01:33:33;14.10;;;3.45;;
32734;SDS011;19112;51.076;3.706;2022-08-21T01:35:59;12.95;;;3.40;;
32734;SDS011;19112;51.076;3.706;2022-08-21T01:38:26;14.85;;;3.80;;
32734;SDS011;19112;51.076;3.706;2022-08-21T01:40:52;17.25;;;3.45;;
32734;SDS011;19112;51.076;3.706;2022-08-21T01:43:18;10.98;;;3.03;;
32734;SDS011;19112;51.076;3.706;2022-08-21T01:45:44;14.18;;;3.53;;
32734;SDS011;19112;51.076;3.706;2022-08-21T01:48:09;19.98;;;4.53;;
32734;SDS011;19112;51.076;3.706;2022-08-21T01:50:35;11.07;;;3.10;;
32734;SDS011;19112;51.076;3.706;2022-08-21T01:53:02;16.63;;;4.20;;
32734;SDS011;19112;51.076;3.706;2022-08-21T01:55:28;13.85;;;3.47;;
32734;SDS011;19112;51.076;3.706;2022-08-21T01:57:54;16.85;;;3.50;;
32734;SDS011;19112;51.076;3.706;2022-08-21T02:00:22;20.35;;;4.07;;
32734;SDS011;19112;51.076;3.706;2022-08-21T02:02:48;19.35;;;3.58;;
32734;SDS011;19112;51.076;3.706;2022-08-21T02:05:15;12.50;;;3.42;;
32734;SDS011;19112;51.076;3.706;2022-08-21T02:07:42;17.23;;;3.35;;
32734;SDS011;19112;51.076;3.706;2022-08-21T02:10:13;15.52;;;3.47;;
32734;SDS011;19112;51.076;3.706;2022-08-21T02:12:45;12.77;;;3.45;;
32734;SDS011;19112;51.076;3.706;2022-08-21T02:15:11;12.35;;;2.97;;
32734;SDS011;19112;51.076;3.706;2022-08-21T02:17:42;17.85;;;3.72;;
32734;SDS011;19112;51.076;3.706;2022-08-21T02:20:17;16.17;;;3.60;;
32734;SDS011;19112;51.076;3.706;2022-08-21T02:22:47;18.88;;;3.75;;
32734;SDS011;19112;51.076;3.706;2022-08-21T02:25:14;15.13;;;3.08;;
32734;SDS011;19112;51.076;3.706;2022-08-21T02:27:43;19.52;;;4.07;;
32734;SDS011;19112;51.076;3.706;2022-08-21T02:30:14;14.90;;;3.35;;
32734;SDS011;19112;51.076;3.706;2022-08-21T02:32:43;10.98;;;3.30;;
32734;SDS011;19112;51.076;3.706;2022-08-21T02:35:09;14.07;;;3.50;;
32734;SDS011;19112;51.076;3.706;2022-08-21T02:38:10;11.07;;;3.10;;
32734;SDS011;19112;51.076;3.706;2022-08-21T02:40:33;13.80;;;3.78;;
32734;SDS011;19112;51.076;3.706;2022-08-21T02:43:02;11.85;;;3.30;;
32734;SDS011;19112;51.076;3.706;2022-08-21T02:45:29;14.70;;;3.30;;
32734;SDS011;19112;51.076;3.706;2022-08-21T02:47:57;15.15;;;3.33;;
32734;SDS011;19112;51.076;3.706;2022-08-21T02:50:35;19.42;;;4.65;;
32734;SDS011;19112;51.076;3.706;2022-08-21T02:53:05;17.38;;;4.05;;
32734;SDS011;19112;51.076;3.706;2022-08-21T02:55:33;16.10;;;3.55;;
32734;SDS011;19112;51.076;3.706;2022-08-21T02:58:02;13.15;;;3.75;;
32734;SDS011;19112;51.076;3.706;2022-08-21T03:00:31;13.85;;;3.35;;
32734;SDS011;19112;51.076;3.706;2022-08-21T03:02:58;15.02;;;3.72;;
32734;SDS011;19112;51.076;3.706;2022-08-21T03:05:26;13.15;;;3.70;;
32734;SDS011;19112;51.076;3.706;2022-08-21T03:07:54;12.45;;;3.70;;
32734;SDS011;19112;51.076;3.706;2022-08-21T03:10:21;20.95;;;3.63;;
32734;SDS011;19112;51.076;3.706;2022-08-21T03:12:47;12.55;;;3.50;;
32734;SDS011;19112;51.076;3.706;2022-08-21T03:15:14;11.68;;;3.70;;
32734;SDS011;19112;51.076;3.706;2022-08-21T03:17:46;9.00;;;3.28;;
32734;SDS011;19112;51.076;3.706;2022-08-21T03:20:13;13.10;;;3.80;;
32734;SDS011;19112;51.076;3.706;2022-08-21T03:22:41;14.80;;;3.90;;
32734;SDS011;19112;51.076;3.706;2022-08-21T03:25:08;17.85;;;3.92;;
32734;SDS011;19112;51.076;3.706;2022-08-21T03:27:35;16.38;;;3.55;;
32734;SDS011;19112;51.076;3.706;2022-08-21T03:30:03;15.88;;;4.68;;
32734;SDS011;19112;51.076;3.706;2022-08-21T03:32:31;15.63;;;3.53;;
32734;SDS011;19112;51.076;3.706;2022-08-21T03:34:57;20.15;;;4.70;;
32734;SDS011;19112;51.076;3.706;2022-08-21T03:37:25;14.70;;;3.95;;
32734;SDS011;19112;51.076;3.706;2022-08-21T03:39:51;16.25;;;3.25;;
32734;SDS011;19112;51.076;3.706;2022-08-21T03:42:17;19.13;;;4.00;;
32734;SDS011;19112;51.076;3.706;2022-08-21T03:44:43;15.40;;;4.00;;
32734;SDS011;19112;51.076;3.706;2022-08-21T03:47:09;17.73;;;4.13;;
32734;SDS011;19112;51.076;3.706;2022-08-21T03:49:35;13.30;;;3.55;;
32734;SDS011;19112;51.076;3.706;2022-08-21T03:52:01;15.90;;;3.30;;
32734;SDS011;19112;51.076;3.706;2022-08-21T03:54:28;15.73;;;4.00;;
32734;SDS011;19112;51.076;3.706;2022-08-21T03:56:54;23.10;;;4.60;;
32734;SDS011;19112;51.076;3.706;2022-08-21T03:59:20;21.25;;;4.53;;
32734;SDS011;19112;51.076;3.706;2022-08-21T04:01:56;17.70;;;3.58;;
32734;SDS011;19112;51.076;3.706;2022-08-21T04:04:24;14.02;;;3.72;;
32734;SDS011;19112;51.076;3.706;2022-08-21T04:06:52;19.25;;;3.95;;
32734;SDS011;19112;51.076;3.706;2022-08-21T04:09:20;15.45;;;3.90;;
32734;SDS011;19112;51.076;3.706;2022-08-21T04:11:46;14.95;;;3.80;;
32734;SDS011;19112;51.076;3.706;2022-08-21T04:14:12;19.52;;;3.80;;
32734;SDS011;19112;51.076;3.706;2022-08-21T04:16:40;22.38;;;4.05;;
32734;SDS011;19112;51.076;3.706;2022-08-21T04:19:07;19.50;;;4.22;;
32734;SDS011;19112;51.076;3.706;2022-08-21T04:21:35;19.50;;;4.38;;
32734;SDS011;19112;51.076;3.706;2022-08-21T04:24:02;16.90;;;3.90;;
32734;SDS011;19112;51.076;3.706;2022-08-21T04:26:30;14.40;;;3.78;;
32734;SDS011;19112;51.076;3.706;2022-08-21T04:28:56;20.13;;;4.60;;
32734;SDS011;19112;51.076;3.706;2022-08-21T04:31:23;20.13;;;4.90;;
32734;SDS011;19112;51.076;3.706;2022-08-21T04:33:50;20.35;;;4.63;;
32734;SDS011;19112;51.076;3.706;2022-08-21T04:36:16;19.38;;;4.13;;
32734;SDS011;19112;51.076;3.706;2022-08-21T04:38:42;19.60;;;4.05;;
32734;SDS011;19112;51.076;3.706;2022-08-21T04:41:08;15.45;;;3.85;;
32734;SDS011;19112;51.076;3.706;2022-08-21T04:43:34;12.80;;;3.47;;
32734;SDS011;19112;51.076;3.706;2022-08-21T04:46:00;11.88;;;3.70;;
32734;SDS011;19112;51.076;3.706;2022-08-21T04:48:26;15.02;;;4.10;;
32734;SDS011;19112;51.076;3.706;2022-08-21T04:51:03;16.58;;;5.90;;
32734;SDS011;19112;51.076;3.706;2022-08-21T04:54:01;21.33;;;6.03;;
32734;SDS011;19112;51.076;3.706;2022-08-21T04:56:48;16.65;;;4.20;;
32734;SDS011;19112;51.076;3.706;2022-08-21T04:59:24;21.33;;;4.97;;
32734;SDS011;19112;51.076;3.706;2022-08-21T05:02:00;15.50;;;4.63;;
32734;SDS011;19112;51.076;3.706;2022-08-21T05:04:29;14.85;;;3.83;;
32734;SDS011;19112;51.076;3.706;2022-08-21T05:06:58;18.55;;;4.20;;
32734;SDS011;19112;51.076;3.706;2022-08-21T05:09:28;21.77;;;4.68;;
32734;SDS011;19112;51.076;3.706;2022-08-21T05:11:55;23.55;;;4.70;;
32734;SDS011;19112;51.076;3.706;2022-08-21T05:14:21;21.17;;;4.20;;
32734;SDS011;19112;51.076;3.706;2022-08-21T05:16:47;12.57;;;4.22;;
32734;SDS011;19112;51.076;3.706;2022-08-21T05:19:13;15.88;;;5.90;;
32734;SDS011;19112;51.076;3.706;2022-08-21T05:21:40;17.88;;;4.22;;
32734;SDS011;19112;51.076;3.706;2022-08-21T05:24:09;18.33;;;4.10;;
32734;SDS011;19112;51.076;3.706;2022-08-21T05:26:36;23.50;;;4.45;;
32734;SDS011;19112;51.076;3.706;2022-08-21T05:29:03;16.65;;;4.40;;
32734;SDS011;19112;51.076;3.706;2022-08-21T05:31:30;18.77;;;4.60;;
32734;SDS011;19112;51.076;3.706;2022-08-21T05:33:55;17.60;;;4.32;;
32734;SDS011;19112;51.076;3.706;2022-08-21T05:36:22;18.08;;;4.90;;
32734;SDS011;19112;51.076;3.706;2022-08-21T05:38:48;19.92;;;4.78;;
32734;SDS011;19112;51.076;3.706;2022-08-21T05:41:14;21.95;;;4.93;;
32734;SDS011;19112;51.076;3.706;2022-08-21T05:43:40;18.35;;;4.72;;
32734;SDS011;19112;51.076;3.706;2022-08-21T05:46:06;17.83;;;4.20;;
32734;SDS011;19112;51.076;3.706;2022-08-21T05:48:33;19.65;;;4.68;;
32734;SDS011;19112;51.076;3.706;2022-08-21T05:51:13;18.20;;;4.85;;
32734;SDS011;19112;51.076;3.706;2022-08-21T05:53:41;18.27;;;4.57;;
32734;SDS011;19112;51.076;3.706;2022-08-21T05:56:07;16.92;;;4.18;;
32734;SDS011;19112;51.076;3.706;2022-08-21T05:58:34;18.45;;;4.43;;
32734;SDS011;19112;51.076;3.706;2022-08-21T06:01:01;19.52;;;4.72;;
32734;SDS011;19112;51.076;3.706;2022-08-21T06:03:29;16.58;;;4.50;;
32734;SDS011;19112;51.076;3.706;2022-08-21T06:05:58;21.88;;;5.25;;
32734;SDS011;19112;51.076;3.706;2022-08-21T06:08:25;16.33;;;4.78;;
32734;SDS011;19112;51.076;3.706;2022-08-21T06:10:53;15.45;;;4.45;;
32734;SDS011;19112;51.076;3.706;2022-08-21T06:13:23;20.63;;;4.78;;
32734;SDS011;19112;51.076;3.706;2022-08-21T06:15:50;20.70;;;4.88;;
32734;SDS011;19112;51.076;3.706;2022-08-21T06:18:35;17.55;;;4.55;;
32734;SDS011;19112;51.076;3.706;2022-08-21T06:21:02;16.90;;;4.47;;
32734;SDS011;19112;51.076;3.706;2022-08-21T06:23:29;19.13;;;4.25;;
32734;SDS011;19112;51.076;3.706;2022-08-21T06:25:54;19.77;;;4.57;;
32734;SDS011;19112;51.076;3.706;2022-08-21T06:28:21;17.38;;;4.75;;
32734;SDS011;19112;51.076;3.706;2022-08-21T06:30:47;17.00;;;5.10;;
32734;SDS011;19112;51.076;3.706;2022-08-21T06:33:13;18.77;;;4.80;;
32734;SDS011;19112;51.076;3.706;2022-08-21T06:35:39;19.65;;;4.65;;
32734;SDS011;19112;51.076;3.706;2022-08-21T06:38:05;26.65;;;5.35;;
32734;SDS011;19112;51.076;3.706;2022-08-21T06:40:31;18.98;;;4.72;;
32734;SDS011;19112;51.076;3.706;2022-08-21T06:42:57;19.13;;;4.95;;
32734;SDS011;19112;51.076;3.706;2022-08-21T06:45:29;20.42;;;4.25;;
32734;SDS011;19112;51.076;3.706;2022-08-21T06:47:58;22.75;;;5.20;;
32734;SDS011;19112;51.076;3.706;2022-08-21T06:50:24;18.55;;;4.72;;
32734;SDS011;19112;51.076;3.706;2022-08-21T06:52:57;16.45;;;4.40;;
32734;SDS011;19112;51.076;3.706;2022-08-21T06:55:35;19.45;;;4.85;;
32734;SDS011;19112;51.076;3.706;2022-08-21T06:58:01;24.75;;;4.60;;
32734;SDS011;19112;51.076;3.706;2022-08-21T07:00:28;20.80;;;4.88;;
32734;SDS011;19112;51.076;3.706;2022-08-21T07:02:54;16.60;;;3.90;;
32734;SDS011;19112;51.076;3.706;2022-08-21T07:05:21;17.98;;;4.80;;
32734;SDS011;19112;51.076;3.706;2022-08-21T07:07:49;22.20;;;4.97;;
32734;SDS011;19112;51.076;3.706;2022-08-21T07:10:15;19.80;;;4.50;;
32734;SDS011;19112;51.076;3.706;2022-08-21T07:12:41;16.02;;;4.32;;
32734;SDS011;19112;51.076;3.706;2022-08-21T07:15:07;19.90;;;4.38;;
32734;SDS011;19112;51.076;3.706;2022-08-21T07:17:33;20.20;;;4.85;;
32734;SDS011;19112;51.076;3.706;2022-08-21T07:19:59;28.00;;;4.82;;
32734;SDS011;19112;51.076;3.706;2022-08-21T07:22:25;18.17;;;4.28;;
32734;SDS011;19112;51.076;3.706;2022-08-21T07:24:52;17.38;;;3.83;;
32734;SDS011;19112;51.076;3.706;2022-08-21T07:27:19;18.63;;;4.13;;
32734;SDS011;19112;51.076;3.706;2022-08-21T07:29:45;14.60;;;4.03;;
32734;SDS011;19112;51.076;3.706;2022-08-21T07:32:11;19.27;;;4.50;;
32734;SDS011;19112;51.076;3.706;2022-08-21T07:34:37;16.92;;;3.88;;
32734;SDS011;19112;51.076;3.706;2022-08-21T07:37:03;19.45;;;3.70;;
32734;SDS011;19112;51.076;3.706;2022-08-21T07:39:29;16.83;;;4.03;;
32734;SDS011;19112;51.076;3.706;2022-08-21T07:41:55;18.00;;;4.53;;
32734;SDS011;19112;51.076;3.706;2022-08-21T07:44:21;17.48;;;3.97;;
32734;SDS011;19112;51.076;3.706;2022-08-21T07:46:46;19.45;;;4.70;;
32734;SDS011;19112;51.076;3.706;2022-08-21T07:49:12;18.98;;;4.57;;
32734;SDS011;19112;51.076;3.706;2022-08-21T07:51:38;20.00;;;4.47;;
32734;SDS011;19112;51.076;3.706;2022-08-21T07:54:04;20.00;;;4.40;;
32734;SDS011;19112;51.076;3.706;2022-08-21T07:56:30;18.05;;;4.85;;
32734;SDS011;19112;51.076;3.706;2022-08-21T07:58:56;19.48;;;4.82;;
32734;SDS011;19112;51.076;3.706;2022-08-21T08:01:22;15.80;;;4.57;;
32734;SDS011;19112;51.076;3.706;2022-08-21T08:03:49;16.40;;;4.43;;
32734;SDS011;19112;51.076;3.706;2022-08-21T08:06:15;18.73;;;5.18;;
32734;SDS011;19112;51.076;3.706;2022-08-21T08:08:43;20.75;;;5.78;;
32734;SDS011;19112;51.076;3.706;2022-08-21T08:11:10;18.55;;;5.40;;
32734;SDS011;19112;51.076;3.706;2022-08-21T08:13:43;25.83;;;5.75;;
32734;SDS011;19112;51.076;3.706;2022-08-21T08:16:12;18.70;;;4.93;;
32734;SDS011;19112;51.076;3.706;2022-08-21T08:18:38;22.38;;;5.38;;
32734;SDS011;19112;51.076;3.706;2022-08-21T08:21:06;19.58;;;4.72;;
32734;SDS011;19112;51.076;3.706;2022-08-21T08:23:32;19.13;;;5.00;;
32734;SDS011;19112;51.076;3.706;2022-08-21T08:25:59;20.90;;;5.28;;
32734;SDS011;19112;51.076;3.706;2022-08-21T08:28:25;19.17;;;5.05;;
32734;SDS011;19112;51.076;3.706;2022-08-21T08:30:52;28.67;;;5.97;;
32734;SDS011;19112;51.076;3.706;2022-08-21T08:33:17;23.60;;;5.22;;
32734;SDS011;19112;51.076;3.706;2022-08-21T08:35:45;23.25;;;5.30;;
32734;SDS011;19112;51.076;3.706;2022-08-21T08:38:14;18.92;;;5.47;;
32734;SDS011;19112;51.076;3.706;2022-08-21T08:43:54;19.20;;;5.15;;
32734;SDS011;19112;51.076;3.706;2022-08-21T08:46:38;21.33;;;6.20;;
32734;SDS011;19112;51.076;3.706;2022-08-21T08:54:32;23.25;;;4.80;;
32734;SDS011;19112;51.076;3.706;2022-08-21T08:57:09;20.85;;;4.13;;
32734;SDS011;19112;51.076;3.706;2022-08-21T08:59:49;22.90;;;4.68;;
32734;SDS011;19112;51.076;3.706;2022-08-21T09:02:20;19.10;;;4.40;;
32734;SDS011;19112;51.076;3.706;2022-08-21T09:04:52;18.88;;;3.75;;
32734;SDS011;19112;51.076;3.706;2022-08-21T09:10:13;18.90;;;4.28;;
32734;SDS011;19112;51.076;3.706;2022-08-21T09:15:45;16.35;;;3.70;;
32734;SDS011;19112;51.076;3.706;2022-08-21T09:21:40;19.13;;;4.13;;
32734;SDS011;19112;51.076;3.706;2022-08-21T09:24:22;18.70;;;3.78;;
32734;SDS011;19112;51.076;3.706;2022-08-21T09:27:08;18.77;;;4.20;;
32734;SDS011;19112;51.076;3.706;2022-08-21T09:29:38;21.80;;;4.78;;
32734;SDS011;19112;51.076;3.706;2022-08-21T09:32:22;17.27;;;3.90;;
32734;SDS011;19112;51.076;3.706;2022-08-21T09:35:33;19.58;;;3.97;;
32734;SDS011;19112;51.076;3.706;2022-08-21T09:45:37;20.80;;;3.30;;
32734;SDS011;19112;51.076;3.706;2022-08-21T09:50:50;14.95;;;3.30;;
32734;SDS011;19112;51.076;3.706;2022-08-21T09:53:29;20.23;;;3.60;;
32734;SDS011;19112;51.076;3.706;2022-08-21T09:56:02;18.17;;;3.60;;
32734;SDS011;19112;51.076;3.706;2022-08-21T09:58:59;18.33;;;3.05;;
32734;SDS011;19112;51.076;3.706;2022-08-21T10:01:25;17.35;;;3.20;;
32734;SDS011;19112;51.076;3.706;2022-08-21T10:04:04;17.02;;;3.13;;
32734;SDS011;19112;51.076;3.706;2022-08-21T10:06:33;17.00;;;3.63;;
32734;SDS011;19112;51.076;3.706;2022-08-21T10:09:06;17.20;;;3.10;;
32734;SDS011;19112;51.076;3.706;2022-08-21T10:11:36;16.27;;;3.40;;
32734;SDS011;19112;51.076;3.706;2022-08-21T10:14:11;15.60;;;3.55;;
32734;SDS011;19112;51.076;3.706;2022-08-21T10:22:42;14.70;;;3.08;;
32734;SDS011;19112;51.076;3.706;2022-08-21T10:25:31;15.77;;;2.95;;
32734;SDS011;19112;51.076;3.706;2022-08-21T10:39:33;16.05;;;3.33;;
32734;SDS011;19112;51.076;3.706;2022-08-21T10:45:07;20.45;;;4.05;;
32734;SDS011;19112;51.076;3.706;2022-08-21T10:48:07;17.40;;;3.25;;
32734;SDS011;19112;51.076;3.706;2022-08-21T10:50:46;16.13;;;2.85;;
32734;SDS011;19112;51.076;3.706;2022-08-21T10:56:05;16.15;;;3.72;;
32734;SDS011;19112;51.076;3.706;2022-08-21T10:58:40;15.27;;;3.10;;
32734;SDS011;19112;51.076;3.706;2022-08-21T11:01:49;14.70;;;3.03;;
32734;SDS011;19112;51.076;3.706;2022-08-21T11:04:24;15.38;;;2.97;;
32734;SDS011;19112;51.076;3.706;2022-08-21T11:07:15;18.27;;;3.55;;
32734;SDS011;19112;51.076;3.706;2022-08-21T11:09:54;16.83;;;3.28;;
32734;SDS011;19112;51.076;3.706;2022-08-21T11:12:39;15.30;;;2.80;;
32734;SDS011;19112;51.076;3.706;2022-08-21T11:18:27;12.00;;;2.73;;
32734;SDS011;19112;51.076;3.706;2022-08-21T11:21:02;13.10;;;2.65;;
32734;SDS011;19112;51.076;3.706;2022-08-21T11:26:47;16.77;;;2.95;;
32734;SDS011;19112;51.076;3.706;2022-08-21T11:29:29;13.13;;;3.20;;
32734;SDS011;19112;51.076;3.706;2022-08-21T11:32:12;14.48;;;3.35;;
32734;SDS011;19112;51.076;3.706;2022-08-21T11:43:35;15.32;;;3.00;;
32734;SDS011;19112;51.076;3.706;2022-08-21T11:46:20;17.27;;;3.00;;
32734;SDS011;19112;51.076;3.706;2022-08-21T11:52:26;15.00;;;3.40;;
32734;SDS011;19112;51.076;3.706;2022-08-21T11:55:22;13.25;;;2.95;;
32734;SDS011;19112;51.076;3.706;2022-08-21T11:58:16;15.70;;;3.25;;
32734;SDS011;19112;51.076;3.706;2022-08-21T12:01:11;22.58;;;3.85;;
32734;SDS011;19112;51.076;3.706;2022-08-21T12:04:06;17.98;;;3.35;;
32734;SDS011;19112;51.076;3.706;2022-08-21T12:06:39;14.07;;;3.63;;
32734;SDS011;19112;51.076;3.706;2022-08-21T12:09:07;19.80;;;3.10;;
32734;SDS011;19112;51.076;3.706;2022-08-21T12:12:12;13.77;;;3.38;;
32734;SDS011;19112;51.076;3.706;2022-08-21T12:15:03;16.20;;;2.80;;
32734;SDS011;19112;51.076;3.706;2022-08-21T12:17:38;16.10;;;2.95;;
32734;SDS011;19112;51.076;3.706;2022-08-21T12:22:53;16.70;;;3.20;;
32734;SDS011;19112;51.076;3.706;2022-08-21T12:28:23;16.05;;;3.50;;
32734;SDS011;19112;51.076;3.706;2022-08-21T12:30:50;17.73;;;3.60;;
32734;SDS011;19112;51.076;3.706;2022-08-21T12:36:07;16.17;;;3.00;;
32734;SDS011;19112;51.076;3.706;2022-08-21T12:38:48;16.25;;;2.95;;
32734;SDS011;19112;51.076;3.706;2022-08-21T12:44:43;17.65;;;3.53;;
32734;SDS011;19112;51.076;3.706;2022-08-21T12:47:30;16.63;;;3.05;;
32734;SDS011;19112;51.076;3.706;2022-08-21T12:50:05;16.67;;;3.00;;
32734;SDS011;19112;51.076;3.706;2022-08-21T12:52:44;17.38;;;3.17;;
32734;SDS011;19112;51.076;3.706;2022-08-21T12:55:30;16.42;;;3.28;;
32734;SDS011;19112;51.076;3.706;2022-08-21T12:57:58;13.75;;;3.05;;
32734;SDS011;19112;51.076;3.706;2022-08-21T13:00:26;14.70;;;2.88;;
32734;SDS011;19112;51.076;3.706;2022-08-21T13:02:54;16.08;;;3.10;;
32734;SDS011;19112;51.076;3.706;2022-08-21T13:08:03;14.82;;;3.45;;
32734;SDS011;19112;51.076;3.706;2022-08-21T13:10:37;18.58;;;3.63;;
32734;SDS011;19112;51.076;3.706;2022-08-21T13:13:05;14.48;;;3.25;;
32734;SDS011;19112;51.076;3.706;2022-08-21T13:15:37;14.95;;;3.42;;
32734;SDS011;19112;51.076;3.706;2022-08-21T13:18:06;15.27;;;3.33;;
32734;SDS011;19112;51.076;3.706;2022-08-21T13:20:36;15.95;;;3.25;;
32734;SDS011;19112;51.076;3.706;2022-08-21T13:23:07;14.43;;;2.78;;
32734;SDS011;19112;51.076;3.706;2022-08-21T13:25:52;19.45;;;3.33;;
32734;SDS011;19112;51.076;3.706;2022-08-21T13:28:20;16.73;;;3.28;;
32734;SDS011;19112;51.076;3.706;2022-08-21T13:30:53;15.45;;;3.50;;
32734;SDS011;19112;51.076;3.706;2022-08-21T13:33:21;16.02;;;2.92;;
32734;SDS011;19112;51.076;3.706;2022-08-21T13:38:24;14.47;;;2.90;;
32734;SDS011;19112;51.076;3.706;2022-08-21T13:43:43;15.25;;;3.03;;
32734;SDS011;19112;51.076;3.706;2022-08-21T13:46:16;17.67;;;3.05;;
32734;SDS011;19112;51.076;3.706;2022-08-21T13:48:45;15.68;;;3.03;;
32734;SDS011;19112;51.076;3.706;2022-08-21T13:51:11;17.35;;;3.42;;
32734;SDS011;19112;51.076;3.706;2022-08-21T13:56:07;19.20;;;4.07;;
32734;SDS011;19112;51.076;3.706;2022-08-21T13:58:41;13.85;;;3.35;;
32734;SDS011;19112;51.076;3.706;2022-08-21T14:04:20;18.58;;;3.78;;
32734;SDS011;19112;51.076;3.706;2022-08-21T14:07:38;13.90;;;3.38;;
32734;SDS011;19112;51.076;3.706;2022-08-21T14:10:11;19.05;;;3.15;;
32734;SDS011;19112;51.076;3.706;2022-08-21T14:12:41;16.88;;;3.20;;
32734;SDS011;19112;51.076;3.706;2022-08-21T14:15:17;18.45;;;2.85;;
32734;SDS011;19112;51.076;3.706;2022-08-21T14:17:47;13.45;;;3.20;;
32734;SDS011;19112;51.076;3.706;2022-08-21T14:20:26;15.07;;;2.90;;
32734;SDS011;19112;51.076;3.706;2022-08-21T14:22:58;15.90;;;2.78;;
32734;SDS011;19112;51.076;3.706;2022-08-21T14:28:03;12.80;;;3.03;;
32734;SDS011;19112;51.076;3.706;2022-08-21T14:30:43;23.92;;;3.85;;
32734;SDS011;19112;51.076;3.706;2022-08-21T14:33:11;18.63;;;3.05;;
32734;SDS011;19112;51.076;3.706;2022-08-21T14:35:55;20.65;;;3.50;;
32734;SDS011;19112;51.076;3.706;2022-08-21T14:38:23;13.27;;;2.58;;
32734;SDS011;19112;51.076;3.706;2022-08-21T14:40:54;21.83;;;3.10;;
32734;SDS011;19112;51.076;3.706;2022-08-21T14:43:28;19.73;;;3.33;;
32734;SDS011;19112;51.076;3.706;2022-08-21T14:45:55;17.52;;;2.85;;
32734;SDS011;19112;51.076;3.706;2022-08-21T14:48:21;19.45;;;3.28;;
32734;SDS011;19112;51.076;3.706;2022-08-21T14:50:47;18.35;;;3.00;;
32734;SDS011;19112;51.076;3.706;2022-08-21T14:53:13;15.30;;;3.20;;
32734;SDS011;19112;51.076;3.706;2022-08-21T14:55:39;15.07;;;2.85;;
32734;SDS011;19112;51.076;3.706;2022-08-21T14:58:35;16.60;;;3.22;;
32734;SDS011;19112;51.076;3.706;2022-08-21T15:01:08;14.48;;;2.88;;
32734;SDS011;19112;51.076;3.706;2022-08-21T15:03:36;14.15;;;3.25;;
32734;SDS011;19112;51.076;3.706;2022-08-21T15:06:03;21.45;;;4.03;;
32734;SDS011;19112;51.076;3.706;2022-08-21T15:08:30;15.95;;;3.05;;
32734;SDS011;19112;51.076;3.706;2022-08-21T15:10:57;15.77;;;2.92;;
32734;SDS011;19112;51.076;3.706;2022-08-21T15:13:25;15.55;;;3.30;;
32734;SDS011;19112;51.076;3.706;2022-08-21T15:15:51;15.63;;;3.08;;
32734;SDS011;19112;51.076;3.706;2022-08-21T15:18:18;22.40;;;4.22;;
32734;SDS011;19112;51.076;3.706;2022-08-21T15:20:49;19.20;;;3.90;;
32734;SDS011;19112;51.076;3.706;2022-08-21T15:23:16;12.38;;;3.08;;
32734;SDS011;19112;51.076;3.706;2022-08-21T15:25:43;20.33;;;3.35;;
32734;SDS011;19112;51.076;3.706;2022-08-21T15:28:11;20.10;;;3.35;;
32734;SDS011;19112;51.076;3.706;2022-08-21T15:30:39;16.27;;;3.25;;
32734;SDS011;19112;51.076;3.706;2022-08-21T15:33:06;11.32;;;2.72;;
32734;SDS011;19112;51.076;3.706;2022-08-21T15:35:32;17.35;;;2.97;;
32734;SDS011;19112;51.076;3.706;2022-08-21T15:37:59;19.10;;;3.55;;
32734;SDS011;19112;51.076;3.706;2022-08-21T15:40:25;15.00;;;3.60;;
32734;SDS011;19112;51.076;3.706;2022-08-21T15:42:52;20.35;;;3.00;;
32734;SDS011;19112;51.076;3.706;2022-08-21T15:45:26;15.43;;;3.33;;
32734;SDS011;19112;51.076;3.706;2022-08-21T15:47:53;18.27;;;3.38;;
32734;SDS011;19112;51.076;3.706;2022-08-21T15:50:20;15.10;;;3.85;;
32734;SDS011;19112;51.076;3.706;2022-08-21T15:52:47;13.43;;;3.28;;
32734;SDS011;19112;51.076;3.706;2022-08-21T15:55:13;15.43;;;3.40;;
32734;SDS011;19112;51.076;3.706;2022-08-21T15:57:43;13.63;;;3.10;;
32734;SDS011;19112;51.076;3.706;2022-08-21T16:02:45;17.23;;;2.88;;
32734;SDS011;19112;51.076;3.706;2022-08-21T16:05:14;14.40;;;3.25;;
32734;SDS011;19112;51.076;3.706;2022-08-21T16:07:42;15.48;;;2.85;;
32734;SDS011;19112;51.076;3.706;2022-08-21T16:10:09;22.35;;;3.65;;
32734;SDS011;19112;51.076;3.706;2022-08-21T16:12:38;19.40;;;4.03;;
32734;SDS011;19112;51.076;3.706;2022-08-21T16:15:09;12.75;;;3.38;;
32734;SDS011;19112;51.076;3.706;2022-08-21T16:17:38;19.67;;;3.05;;
32734;SDS011;19112;51.076;3.706;2022-08-21T16:20:07;17.70;;;3.45;;
32734;SDS011;19112;51.076;3.706;2022-08-21T16:22:37;16.40;;;3.45;;
32734;SDS011;19112;51.076;3.706;2022-08-21T16:25:04;14.68;;;3.20;;
32734;SDS011;19112;51.076;3.706;2022-08-21T16:27:31;17.95;;;3.20;;
32734;SDS011;19112;51.076;3.706;2022-08-21T16:29:58;15.25;;;3.15;;
32734;SDS011;19112;51.076;3.706;2022-08-21T16:32:25;12.15;;;2.97;;
32734;SDS011;19112;51.076;3.706;2022-08-21T16:34:51;17.20;;;3.58;;